createdAt,value
2024-02-29T00:00:35.721Z,45.92
2024-02-29T00:01:35.644Z,52.02
2024-02-29T00:02:35.553Z,52.84
2024-02-29T00:03:35.587Z,59.11
2024-02-29T00:04:35.585Z,49.98
2024-02-29T00:05:35.533Z,48.92
2024-02-29T00:06:35.548Z,52.78
2024-02-29T00:07:35.527Z,46.86
2024-02-29T00:08:35.544Z,52.49
2024-02-29T00:09:35.570Z,48.88
2024-02-29T00:10:35.514Z,51.23
2024-02-29T00:11:35.501Z,51.54
2024-02-29T00:12:35.559Z,49.50
2024-02-29T00:13:35.517Z,47.95
2024-02-29T00:14:35.504Z,47.02
2024-02-29T00:15:35.517Z,42.92
2024-02-29T00:16:35.461Z,44.30
2024-02-29T00:17:35.487Z,48.14
2024-02-29T00:18:35.490Z,47.81
2024-02-29T00:19:35.449Z,53.45
2024-02-29T00:20:35.431Z,55.94
2024-02-29T00:21:35.456Z,53.45
2024-02-29T00:22:35.449Z,55.00
2024-02-29T00:23:35.454Z,52.48
2024-02-29T00:24:35.402Z,53.95
2024-02-29T00:25:35.535Z,54.69
2024-02-29T00:26:35.390Z,50.30
2024-02-29T00:27:35.423Z,49.97
2024-02-29T00:28:35.409Z,55.14
2024-02-29T00:29:35.368Z,46.66
2024-02-29T00:30:35.415Z,55.36
2024-02-29T00:31:35.361Z,49.01
2024-02-29T00:32:35.559Z,48.63
2024-02-29T00:33:35.369Z,55.42
2024-02-29T00:34:35.337Z,47.90
2024-02-29T00:35:35.326Z,45.56
2024-02-29T00:36:35.419Z,50.96
2024-02-29T00:37:35.350Z,49.31
2024-02-29T00:38:35.299Z,44.74
2024-02-29T00:39:35.312Z,51.40
2024-02-29T00:40:35.286Z,51.90
2024-02-29T00:41:35.311Z,55.81
2024-02-29T00:42:35.307Z,57.30
2024-02-29T00:43:35.271Z,51.66
2024-02-29T00:44:35.257Z,49.52
2024-02-29T00:45:35.274Z,50.66
2024-02-29T00:46:35.269Z,47.14
2024-02-29T00:47:36.265Z,44.15
2024-02-29T00:48:35.266Z,46.83
2024-02-29T00:49:35.230Z,55.52
2024-02-29T00:50:35.286Z,42.80
2024-02-29T00:51:35.304Z,46.91
2024-02-29T00:52:35.210Z,42.78
2024-02-29T00:53:35.198Z,47.55
2024-02-29T00:54:35.235Z,51.11
2024-02-29T00:55:35.204Z,54.24
2024-02-29T00:56:35.205Z,53.17
2024-02-29T00:57:35.208Z,44.80
2024-02-29T00:58:35.160Z,50.20
2024-02-29T00:59:35.149Z,51.29
2024-02-29T01:00:35.209Z,43.99
2024-02-29T01:01:35.227Z,53.30
2024-02-29T01:02:35.133Z,44.57
2024-02-29T01:03:35.521Z,43.67
2024-02-29T01:05:07.059Z,46.58
2024-02-29T01:05:35.107Z,57.42
2024-02-29T01:06:35.128Z,56.16
2024-02-29T01:07:35.102Z,47.85
2024-02-29T01:08:35.088Z,53.80
2024-02-29T01:09:35.142Z,43.26
2024-02-29T01:10:35.072Z,43.03
2024-02-29T01:11:35.075Z,44.68
2024-02-29T01:12:35.134Z,44.47
2024-02-29T01:13:35.051Z,42.40
2024-02-29T01:14:35.061Z,47.50
2024-02-29T01:15:35.064Z,45.93
2024-02-29T01:16:35.039Z,53.85
2024-02-29T01:17:35.073Z,53.02
2024-02-29T01:18:35.073Z,50.97
2024-02-29T01:19:35.036Z,51.86
2024-02-29T01:20:35.009Z,42.37
2024-02-29T01:21:35.086Z,50.25
2024-02-29T01:22:34.997Z,42.72
2024-02-29T01:23:35.011Z,41.77
2024-02-29T01:24:35.030Z,46.21
2024-02-29T01:25:34.961Z,42.37
2024-02-29T01:26:34.949Z,51.02
2024-02-29T01:27:34.968Z,49.23
2024-02-29T01:28:34.956Z,52.98
2024-02-29T01:29:34.924Z,54.61
2024-02-29T01:30:34.971Z,57.16
2024-02-29T01:31:34.945Z,46.99
2024-02-29T01:32:37.660Z,47.80
2024-02-29T01:33:34.955Z,44.17
2024-02-29T01:34:34.885Z,57.90
2024-02-29T01:35:34.896Z,58.65
2024-02-29T01:36:34.894Z,54.91
2024-02-29T01:37:34.894Z,50.88
2024-02-29T01:38:34.861Z,42.96
2024-02-29T01:39:34.854Z,44.31
2024-02-29T01:40:34.838Z,59.52
2024-02-29T01:41:34.837Z,59.03
2024-02-29T01:42:34.952Z,44.46
2024-02-29T01:43:34.817Z,46.86
2024-02-29T01:44:34.810Z,43.77
2024-02-29T01:45:34.866Z,53.27
2024-02-29T01:46:34.799Z,46.90
2024-02-29T01:47:34.873Z,58.00
2024-02-29T01:48:34.830Z,51.22
2024-02-29T01:49:34.793Z,42.46
2024-02-29T01:50:34.783Z,46.40
2024-02-29T01:51:34.823Z,58.47
2024-02-29T01:52:34.790Z,47.69
2024-02-29T01:53:34.953Z,56.15
2024-02-29T01:54:35.774Z,55.03
2024-02-29T01:55:34.721Z,52.60
2024-02-29T01:56:34.748Z,61.73
2024-02-29T01:57:34.763Z,54.74
2024-02-29T01:58:34.716Z,52.93
2024-02-29T01:59:34.762Z,60.47
2024-02-29T02:00:34.700Z,55.07
2024-02-29T02:01:34.977Z,49.95
2024-02-29T02:02:34.709Z,46.04
2024-02-29T02:03:34.717Z,46.13
2024-02-29T02:04:34.686Z,46.34
2024-02-29T02:05:34.656Z,53.47
2024-02-29T02:06:34.741Z,55.14
2024-02-29T02:07:34.652Z,59.79
2024-02-29T02:08:34.628Z,61.95
2024-02-29T02:09:34.669Z,55.09
2024-02-29T02:10:34.623Z,51.66
2024-02-29T02:11:34.649Z,60.57
2024-02-29T02:12:34.691Z,58.49
2024-02-29T02:13:34.592Z,47.09
2024-02-29T02:14:34.587Z,51.75
2024-02-29T02:15:34.677Z,43.89
2024-02-29T02:16:34.607Z,44.60
2024-02-29T02:17:34.583Z,52.75
2024-02-29T02:18:34.613Z,59.39
2024-02-29T02:19:34.583Z,47.83
2024-02-29T02:20:34.574Z,51.30
2024-02-29T02:21:34.590Z,56.43
2024-02-29T02:22:34.520Z,48.20
2024-02-29T02:23:34.519Z,43.64
2024-02-29T02:24:34.602Z,50.19
2024-02-29T02:25:34.528Z,57.58
2024-02-29T02:26:34.494Z,41.96
2024-02-29T02:27:34.522Z,45.21
2024-02-29T02:28:34.487Z,47.48
2024-02-29T02:29:34.478Z,51.23
2024-02-29T02:30:34.559Z,53.43
2024-02-29T02:31:34.458Z,51.48
2024-02-29T02:32:34.462Z,53.10
2024-02-29T02:33:34.453Z,43.51
2024-02-29T02:34:34.489Z,50.08
2024-02-29T02:35:34.465Z,43.96
2024-02-29T02:36:34.450Z,42.37
2024-02-29T02:37:34.415Z,51.39
2024-02-29T02:38:34.422Z,57.67
2024-02-29T02:39:34.442Z,56.74
2024-02-29T02:40:34.418Z,53.54
2024-02-29T02:41:34.391Z,51.53
2024-02-29T02:42:34.423Z,53.26
2024-02-29T02:43:34.373Z,47.16
2024-02-29T02:44:34.400Z,51.37
2024-02-29T02:45:34.417Z,51.28
2024-02-29T02:46:34.353Z,46.96
2024-02-29T02:47:34.386Z,50.79
2024-02-29T02:48:34.363Z,55.15
2024-02-29T02:49:34.350Z,58.16
2024-02-29T02:50:34.410Z,59.06
2024-02-29T02:51:34.378Z,50.72
2024-02-29T02:52:34.302Z,61.26
2024-02-29T02:53:34.329Z,55.50
2024-02-29T02:54:34.339Z,55.20
2024-02-29T02:55:34.292Z,55.35
2024-02-29T02:56:34.275Z,49.35
2024-02-29T02:57:34.293Z,57.08
2024-02-29T02:58:34.296Z,64.33
2024-02-29T02:59:34.270Z,56.27
2024-02-29T03:00:34.286Z,51.92
2024-02-29T03:01:34.274Z,52.93
2024-02-29T03:02:34.234Z,52.73
2024-02-29T03:03:34.278Z,43.57
2024-02-29T03:04:34.218Z,43.40
2024-02-29T03:05:34.210Z,53.33
2024-02-29T03:06:34.266Z,52.03
2024-02-29T03:07:34.226Z,47.46
2024-02-29T03:08:34.216Z,55.44
2024-02-29T03:09:34.280Z,52.51
2024-02-29T03:10:34.180Z,49.15
2024-02-29T03:11:34.222Z,46.22
2024-02-29T03:12:34.226Z,55.70
2024-02-29T03:13:34.155Z,58.42
2024-02-29T03:14:34.177Z,57.83
2024-02-29T03:15:34.186Z,49.77
2024-02-29T03:16:34.463Z,56.23
2024-02-29T03:17:34.228Z,45.55
2024-02-29T03:18:34.136Z,43.42
2024-02-29T03:19:34.113Z,50.17
2024-02-29T03:20:34.107Z,58.07
2024-02-29T03:21:34.236Z,51.35
2024-02-29T03:22:34.113Z,48.36
2024-02-29T03:23:34.099Z,50.06
2024-02-29T03:24:34.118Z,47.52
2024-02-29T03:25:34.082Z,56.12
2024-02-29T03:26:34.086Z,56.63
2024-02-29T03:27:34.116Z,51.89
2024-02-29T03:28:34.044Z,55.76
2024-02-29T03:29:34.043Z,59.62
2024-02-29T03:30:34.065Z,55.96
2024-02-29T03:31:34.052Z,50.69
2024-02-29T03:32:34.044Z,58.58
2024-02-29T03:33:34.037Z,53.95
2024-02-29T03:34:34.002Z,59.74
2024-02-29T03:35:34.006Z,52.92
2024-02-29T03:36:34.035Z,53.92
2024-02-29T03:37:33.978Z,54.41
2024-02-29T03:38:33.971Z,64.02
2024-02-29T03:39:34.014Z,57.24
2024-02-29T03:40:33.984Z,53.29
2024-02-29T03:41:33.983Z,57.58
2024-02-29T03:42:33.983Z,57.50
2024-02-29T03:43:33.945Z,53.09
2024-02-29T03:44:33.939Z,52.34
2024-02-29T03:45:34.007Z,61.05
2024-02-29T03:46:33.912Z,50.71
2024-02-29T03:47:33.936Z,58.27
2024-02-29T03:48:33.997Z,58.30
2024-02-29T03:49:33.893Z,58.33
2024-02-29T03:50:33.909Z,53.72
2024-02-29T03:51:33.911Z,56.13
2024-02-29T03:52:33.876Z,53.40
2024-02-29T03:53:33.869Z,59.45
2024-02-29T03:54:33.901Z,50.37
2024-02-29T03:55:33.869Z,54.48
2024-02-29T03:56:33.837Z,50.43
2024-02-29T03:57:33.840Z,52.20
2024-02-29T03:58:33.823Z,56.79
2024-02-29T03:59:33.847Z,61.33
2024-02-29T04:00:33.845Z,51.73
2024-02-29T04:01:33.889Z,52.38
2024-02-29T04:02:33.796Z,57.12
2024-02-29T04:03:33.802Z,59.24
2024-02-29T04:04:33.810Z,49.67
2024-02-29T04:05:33.763Z,52.07
2024-02-29T04:06:33.782Z,53.85
2024-02-29T04:07:33.757Z,57.78
2024-02-29T04:08:33.744Z,57.94
2024-02-29T04:09:33.817Z,59.61
2024-02-29T04:10:33.737Z,58.73
2024-02-29T04:11:33.723Z,60.15
2024-02-29T04:12:33.756Z,62.11
2024-02-29T04:13:33.730Z,58.81
2024-02-29T04:14:33.729Z,62.09
2024-02-29T04:15:33.741Z,63.85
2024-02-29T04:16:33.682Z,63.38
2024-02-29T04:17:33.916Z,53.80
2024-02-29T04:18:33.817Z,62.64
2024-02-29T04:19:33.669Z,64.85
2024-02-29T04:20:33.654Z,56.72
2024-02-29T04:21:33.693Z,55.43
2024-02-29T04:22:33.645Z,57.77
2024-02-29T04:23:33.668Z,61.02
2024-02-29T04:24:33.658Z,60.03
2024-02-29T04:25:33.625Z,58.70
2024-02-29T04:26:33.617Z,60.48
2024-02-29T04:27:33.715Z,63.55
2024-02-29T04:28:33.677Z,66.57
2024-02-29T04:29:33.623Z,60.51
2024-02-29T04:30:33.644Z,62.07
2024-02-29T04:31:33.600Z,61.25
2024-02-29T04:32:33.611Z,59.87
2024-02-29T04:33:33.610Z,61.83
2024-02-29T04:34:33.624Z,61.06
2024-02-29T04:35:33.560Z,60.40
2024-02-29T04:36:33.641Z,64.86
2024-02-29T04:37:33.581Z,61.06
2024-02-29T04:38:33.525Z,58.56
2024-02-29T04:39:33.553Z,63.75
2024-02-29T04:40:33.522Z,62.69
2024-02-29T04:41:33.529Z,61.90
2024-02-29T04:42:33.552Z,61.81
2024-02-29T04:43:33.493Z,63.29
2024-02-29T04:44:33.478Z,61.41
2024-02-29T04:45:33.483Z,61.67
2024-02-29T04:46:33.494Z,63.49
2024-02-29T04:47:33.511Z,56.12
2024-02-29T04:48:33.474Z,59.99
2024-02-29T04:49:33.443Z,58.66
2024-02-29T04:50:33.448Z,55.65
2024-02-29T04:51:33.482Z,64.99
2024-02-29T04:52:33.430Z,63.40
2024-02-29T04:53:33.412Z,64.76
2024-02-29T04:54:33.451Z,60.92
2024-02-29T04:55:33.396Z,57.55
2024-02-29T04:56:33.427Z,61.02
2024-02-29T04:57:33.385Z,55.98
2024-02-29T04:58:33.394Z,57.13
2024-02-29T04:59:33.378Z,57.23
2024-02-29T05:00:33.453Z,57.24
2024-02-29T05:01:33.492Z,60.41
2024-02-29T05:02:33.346Z,58.10
2024-02-29T05:03:33.400Z,58.27
2024-02-29T05:04:33.332Z,63.16
2024-02-29T05:05:33.356Z,57.37
2024-02-29T05:06:33.404Z,57.86
2024-02-29T05:07:33.314Z,60.41
2024-02-29T05:08:33.306Z,61.27
2024-02-29T05:09:33.315Z,62.35
2024-02-29T05:10:33.323Z,64.04
2024-02-29T05:11:35.053Z,63.10
2024-02-29T05:12:33.309Z,65.51
2024-02-29T05:13:33.285Z,64.12
2024-02-29T05:14:33.286Z,61.70
2024-02-29T05:15:33.295Z,63.76
2024-02-29T05:16:33.261Z,62.32
2024-02-29T05:17:33.272Z,61.34
2024-02-29T05:18:33.261Z,61.95
2024-02-29T05:19:33.253Z,63.56
2024-02-29T05:20:33.227Z,60.29
2024-02-29T05:21:33.227Z,64.21
2024-02-29T05:22:35.238Z,61.28
2024-02-29T05:23:33.229Z,59.53
2024-02-29T05:24:33.251Z,58.21
2024-02-29T05:25:33.182Z,62.29
2024-02-29T05:26:33.190Z,60.97
2024-02-29T05:27:33.197Z,65.09
2024-02-29T05:28:33.187Z,58.24
2024-02-29T05:29:33.188Z,59.28
2024-02-29T05:30:33.131Z,63.42
2024-02-29T05:31:34.144Z,61.98
2024-02-29T05:32:33.151Z,60.73
2024-02-29T05:33:33.242Z,62.05
2024-02-29T05:34:33.131Z,59.83
2024-02-29T05:35:33.113Z,60.94
2024-02-29T05:36:33.275Z,62.47
2024-02-29T05:37:33.105Z,63.69
2024-02-29T05:38:33.124Z,65.41
2024-02-29T05:39:33.146Z,63.94
2024-02-29T05:40:33.142Z,64.83
2024-02-29T05:41:33.065Z,63.85
2024-02-29T05:42:33.133Z,62.85
2024-02-29T05:43:35.512Z,64.65
2024-02-29T05:44:34.044Z,66.59
2024-02-29T05:45:33.069Z,64.00
2024-02-29T05:46:33.038Z,61.02
2024-02-29T05:47:33.100Z,63.54
2024-02-29T05:48:33.036Z,64.91
2024-02-29T05:49:33.029Z,63.26
2024-02-29T05:50:34.536Z,62.14
2024-02-29T05:51:34.044Z,62.93
2024-02-29T05:52:33.027Z,66.36
2024-02-29T05:53:32.990Z,64.13
2024-02-29T05:54:33.031Z,61.27
2024-02-29T05:55:32.959Z,64.04
2024-02-29T05:56:32.991Z,62.33
2024-02-29T05:57:32.989Z,64.87
2024-02-29T05:58:33.028Z,62.60
2024-02-29T05:59:32.940Z,63.22
2024-02-29T06:00:33.043Z,65.13
2024-02-29T06:01:32.993Z,64.65
2024-02-29T06:02:32.913Z,65.15
2024-02-29T06:03:32.949Z,64.23
2024-02-29T06:04:32.906Z,62.36
2024-02-29T06:05:32.907Z,64.11
2024-02-29T06:06:32.919Z,63.54
2024-02-29T06:07:32.881Z,63.13
2024-02-29T06:08:32.870Z,61.98
2024-02-29T06:09:32.892Z,62.74
2024-02-29T06:10:32.874Z,62.15
2024-02-29T06:11:32.908Z,62.85
2024-02-29T06:12:32.888Z,61.81
2024-02-29T06:13:32.843Z,61.85
2024-02-29T06:14:32.827Z,62.30
2024-02-29T06:15:32.852Z,63.46
2024-02-29T06:16:32.805Z,62.07
2024-02-29T06:17:32.849Z,61.91
2024-02-29T06:18:32.859Z,64.91
2024-02-29T06:19:32.788Z,62.45
2024-02-29T06:20:32.805Z,62.88
2024-02-29T06:21:32.876Z,63.49
2024-02-29T06:22:32.775Z,65.23
2024-02-29T06:23:32.787Z,62.46
2024-02-29T06:24:32.805Z,64.33
2024-02-29T06:25:32.770Z,63.86
2024-02-29T06:26:32.811Z,64.17
2024-02-29T06:27:32.783Z,63.55
2024-02-29T06:28:32.827Z,65.52
2024-02-29T06:29:32.735Z,66.08
2024-02-29T06:30:33.026Z,65.66
2024-02-29T06:31:32.707Z,67.14
2024-02-29T06:32:32.709Z,66.39
2024-02-29T06:33:32.732Z,65.67
2024-02-29T06:34:32.716Z,67.49
2024-02-29T06:35:32.683Z,68.49
2024-02-29T06:36:32.690Z,68.47
2024-02-29T06:37:32.703Z,65.19
2024-02-29T06:38:32.665Z,64.26
2024-02-29T06:39:32.694Z,64.12
2024-02-29T06:40:32.657Z,64.53
2024-02-29T06:41:32.631Z,64.71
2024-02-29T06:42:32.629Z,65.13
2024-02-29T06:43:33.435Z,64.93
2024-02-29T06:44:32.665Z,64.80
2024-02-29T06:45:32.620Z,63.14
2024-02-29T06:46:32.593Z,62.75
2024-02-29T06:47:32.605Z,61.31
2024-02-29T06:48:32.608Z,61.62
2024-02-29T06:49:32.563Z,64.79
2024-02-29T06:50:32.566Z,61.64
2024-02-29T06:51:32.553Z,61.38
2024-02-29T06:52:32.548Z,63.19
2024-02-29T06:53:32.578Z,63.75
2024-02-29T06:54:32.537Z,63.15
2024-02-29T06:55:32.519Z,62.17
2024-02-29T06:56:32.521Z,64.90
2024-02-29T06:57:32.535Z,64.53
2024-02-29T06:58:32.520Z,65.20
2024-02-29T06:59:32.497Z,61.70
2024-02-29T07:00:32.484Z,64.38
2024-02-29T07:01:32.565Z,62.65
2024-02-29T07:02:32.507Z,63.96
2024-02-29T07:03:32.484Z,60.20
2024-02-29T07:04:32.460Z,62.60
2024-02-29T07:06:05.082Z,61.61
2024-02-29T07:06:32.439Z,65.87
2024-02-29T07:07:32.453Z,66.29
2024-02-29T07:08:32.431Z,62.15
2024-02-29T07:09:32.416Z,57.59
2024-02-29T07:10:32.439Z,60.15
2024-02-29T07:11:32.454Z,61.26
2024-02-29T07:12:32.416Z,61.42
2024-02-29T07:13:32.389Z,61.62
2024-02-29T07:14:32.392Z,62.24
2024-02-29T07:15:32.366Z,61.73
2024-02-29T07:16:32.397Z,60.37
2024-02-29T07:17:32.411Z,62.20
2024-02-29T07:18:32.360Z,63.47
2024-02-29T07:19:32.353Z,62.44
2024-02-29T07:20:32.331Z,59.69
2024-02-29T07:21:32.339Z,63.37
2024-02-29T07:22:32.312Z,56.53
2024-02-29T07:23:32.308Z,64.05
2024-02-29T07:24:32.303Z,61.98
2024-02-29T07:25:32.309Z,60.57
2024-02-29T07:26:32.319Z,60.39
2024-02-29T07:27:32.269Z,63.22
2024-02-29T07:28:32.272Z,63.19
2024-02-29T07:29:32.258Z,61.16
2024-02-29T07:30:32.372Z,63.27
2024-02-29T07:31:32.261Z,62.89
2024-02-29T07:32:32.250Z,62.65
2024-02-29T07:33:32.230Z,59.67
2024-02-29T07:34:32.235Z,62.98
2024-02-29T07:35:32.270Z,61.82
2024-02-29T07:36:32.198Z,62.16
2024-02-29T07:37:32.196Z,61.27
2024-02-29T07:38:32.195Z,62.04
2024-02-29T07:39:32.206Z,61.96
2024-02-29T07:40:32.195Z,59.38
2024-02-29T07:41:32.161Z,61.10
2024-02-29T07:42:32.243Z,60.87
2024-02-29T07:43:32.180Z,60.74
2024-02-29T07:44:32.165Z,60.86
2024-02-29T07:45:32.123Z,62.28
2024-02-29T07:46:32.115Z,60.61
2024-02-29T07:47:32.134Z,62.55
2024-02-29T07:48:32.146Z,59.92
2024-02-29T07:49:32.120Z,59.23
2024-02-29T07:50:32.085Z,63.11
2024-02-29T07:51:32.087Z,60.12
2024-02-29T07:52:32.080Z,60.89
2024-02-29T07:53:32.104Z,62.11
2024-02-29T07:54:32.062Z,65.39
2024-02-29T07:55:32.053Z,60.62
2024-02-29T07:56:32.037Z,59.92
2024-02-29T07:57:32.043Z,63.56
2024-02-29T07:58:32.056Z,63.45
2024-02-29T07:59:32.011Z,62.15
2024-02-29T08:00:32.018Z,58.30
2024-02-29T08:01:32.067Z,55.49
2024-02-29T08:02:32.014Z,62.61
2024-02-29T08:03:32.020Z,58.76
2024-02-29T08:04:31.982Z,61.47
2024-02-29T08:05:31.973Z,59.35
2024-02-29T08:06:31.971Z,62.75
2024-02-29T08:07:31.985Z,58.76
2024-02-29T08:08:31.948Z,62.06
2024-02-29T08:09:31.935Z,56.84
2024-02-29T08:10:31.930Z,60.52
2024-02-29T08:11:32.979Z,62.59
2024-02-29T08:12:31.945Z,61.51
2024-02-29T08:13:31.918Z,61.83
2024-02-29T08:14:31.900Z,64.60
2024-02-29T08:15:31.895Z,61.00
2024-02-29T08:16:31.920Z,62.82
2024-02-29T08:17:31.928Z,60.12
2024-02-29T08:18:31.962Z,57.26
2024-02-29T08:19:31.869Z,58.78
2024-02-29T08:20:31.859Z,61.28
2024-02-29T08:21:31.891Z,58.57
2024-02-29T08:22:31.875Z,60.01
2024-02-29T08:23:31.829Z,59.19
2024-02-29T08:24:31.826Z,60.48
2024-02-29T08:25:31.816Z,59.64
2024-02-29T08:26:31.834Z,61.60
2024-02-29T08:27:31.800Z,58.77
2024-02-29T08:28:31.799Z,59.08
2024-02-29T08:29:31.802Z,60.45
2024-02-29T08:30:31.796Z,62.23
2024-02-29T08:31:31.828Z,60.57
2024-02-29T08:32:31.811Z,61.62
2024-02-29T08:33:31.759Z,62.78
2024-02-29T08:34:31.738Z,59.57
2024-02-29T08:35:31.788Z,59.62
2024-02-29T08:36:31.755Z,58.86
2024-02-29T08:37:31.724Z,61.42
2024-02-29T08:38:31.722Z,60.65
2024-02-29T08:39:31.718Z,63.00
2024-02-29T08:40:31.749Z,57.84
2024-02-29T08:41:31.692Z,61.05
2024-02-29T08:42:31.687Z,58.61
2024-02-29T08:43:31.686Z,60.15
2024-02-29T08:44:31.662Z,57.85
2024-02-29T08:45:32.693Z,64.38
2024-02-29T08:46:31.709Z,59.95
2024-02-29T08:47:31.673Z,61.37
2024-02-29T08:48:31.628Z,56.17
2024-02-29T08:49:31.684Z,63.37
2024-02-29T08:50:31.753Z,60.93
2024-02-29T08:51:31.616Z,60.02
2024-02-29T08:52:31.654Z,63.48
2024-02-29T08:53:31.600Z,60.30
2024-02-29T08:54:31.612Z,58.81
2024-02-29T08:55:31.671Z,60.34
2024-02-29T08:56:31.615Z,60.51
2024-02-29T08:57:31.564Z,58.82
2024-02-29T08:58:31.585Z,53.53
2024-02-29T08:59:31.577Z,58.97
2024-02-29T09:00:31.544Z,59.69
2024-02-29T09:01:31.590Z,60.85
2024-02-29T09:02:31.538Z,53.67
2024-02-29T09:03:31.558Z,62.92
2024-02-29T09:04:31.542Z,58.70
2024-02-29T09:05:31.505Z,55.79
2024-02-29T09:06:40.847Z,63.34
2024-02-29T09:07:33.520Z,57.45
2024-02-29T09:08:31.525Z,61.54
2024-02-29T09:09:31.484Z,59.30
2024-02-29T09:10:31.523Z,59.14
2024-02-29T09:11:31.478Z,59.77
2024-02-29T09:12:31.499Z,57.83
2024-02-29T09:13:35.625Z,61.60
2024-02-29T09:14:31.438Z,62.05
2024-02-29T09:15:31.438Z,58.69
2024-02-29T09:16:31.443Z,62.80
2024-02-29T09:17:31.463Z,69.97
2024-02-29T09:18:31.696Z,64.26
2024-02-29T09:19:31.439Z,62.78
2024-02-29T09:20:31.392Z,58.79
2024-02-29T09:21:31.385Z,59.34
2024-02-29T09:22:31.416Z,63.17
2024-02-29T09:23:31.365Z,60.28
2024-02-29T09:24:31.366Z,61.42
2024-02-29T09:25:31.355Z,59.85
2024-02-29T09:26:31.338Z,60.32
2024-02-29T09:27:31.388Z,59.51
2024-02-29T09:28:31.329Z,60.41
2024-02-29T09:29:34.180Z,64.47
2024-02-29T09:30:31.310Z,60.51
2024-02-29T09:31:31.375Z,63.74
2024-02-29T09:32:31.344Z,65.97
2024-02-29T09:33:31.297Z,65.33
2024-02-29T09:34:32.773Z,59.85
2024-02-29T09:35:31.295Z,60.42
2024-02-29T09:36:31.291Z,59.80
2024-02-29T09:37:31.329Z,58.67
2024-02-29T09:38:31.274Z,63.74
2024-02-29T09:39:31.240Z,57.76
2024-02-29T09:40:41.488Z,59.32
2024-02-29T09:42:33.214Z,59.87
2024-02-29T09:43:31.214Z,56.15
2024-02-29T09:44:31.222Z,57.47
2024-02-29T09:45:31.243Z,56.86
2024-02-29T09:46:31.214Z,58.99
2024-02-29T09:47:31.293Z,57.51
2024-02-29T09:48:31.181Z,57.32
2024-02-29T09:49:31.160Z,59.85
2024-02-29T09:50:31.220Z,57.50
2024-02-29T09:51:31.157Z,58.79
2024-02-29T09:52:31.165Z,58.38
2024-02-29T09:53:31.152Z,58.76
2024-02-29T09:54:31.127Z,54.92
2024-02-29T09:55:31.165Z,59.14
2024-02-29T09:56:31.110Z,58.55
2024-02-29T09:57:31.104Z,52.54
2024-02-29T09:58:31.098Z,55.35
2024-02-29T09:59:31.130Z,56.41
2024-02-29T10:00:31.109Z,56.12
2024-02-29T10:01:31.225Z,59.78
2024-02-29T10:02:31.086Z,56.12
2024-02-29T10:03:31.061Z,54.32
2024-02-29T10:04:31.100Z,57.86
2024-02-29T10:05:31.045Z,52.98
2024-02-29T10:06:31.050Z,56.72
2024-02-29T10:07:31.030Z,52.58
2024-02-29T10:08:31.027Z,55.39
2024-02-29T10:09:31.040Z,56.06
2024-02-29T10:10:31.099Z,56.05
2024-02-29T10:11:31.114Z,56.87
2024-02-29T10:12:30.986Z,55.61
2024-02-29T10:13:31.061Z,58.17
2024-02-29T10:14:31.002Z,53.61
2024-02-29T10:15:30.973Z,52.61
2024-02-29T10:16:31.561Z,50.25
2024-02-29T10:17:31.224Z,56.99
2024-02-29T10:18:30.971Z,60.00
2024-02-29T10:19:30.950Z,55.52
2024-02-29T10:20:30.926Z,55.54
2024-02-29T10:21:30.920Z,57.07
2024-02-29T10:22:30.947Z,59.49
2024-02-29T10:23:30.927Z,57.14
2024-02-29T10:24:30.896Z,58.93
2024-02-29T10:25:30.935Z,53.61
2024-02-29T10:26:30.880Z,57.52
2024-02-29T10:27:30.934Z,56.39
2024-02-29T10:28:30.897Z,58.48
2024-02-29T10:29:30.897Z,56.40
2024-02-29T10:30:30.890Z,58.88
2024-02-29T10:31:30.844Z,57.83
2024-02-29T10:32:30.885Z,57.27
2024-02-29T10:33:30.821Z,55.80
2024-02-29T10:34:30.854Z,54.69
2024-02-29T10:35:30.831Z,54.50
2024-02-29T10:36:30.804Z,55.81
2024-02-29T10:37:30.813Z,56.57
2024-02-29T10:38:30.792Z,55.66
2024-02-29T10:39:30.791Z,54.66
2024-02-29T10:40:30.855Z,53.57
2024-02-29T10:41:30.757Z,52.44
2024-02-29T10:42:31.908Z,56.60
2024-02-29T10:43:30.747Z,53.86
2024-02-29T10:44:30.734Z,58.40
2024-02-29T10:45:30.732Z,55.75
2024-02-29T10:46:30.749Z,56.77
2024-02-29T10:47:30.749Z,54.38
2024-02-29T10:48:30.698Z,60.07
2024-02-29T10:49:30.728Z,57.49
2024-02-29T10:50:30.692Z,59.30
2024-02-29T10:51:30.722Z,62.50
2024-02-29T10:52:30.746Z,53.91
2024-02-29T10:53:30.672Z,60.62
2024-02-29T10:54:30.663Z,54.85
2024-02-29T10:55:30.726Z,58.22
2024-02-29T10:56:30.733Z,60.71
2024-02-29T10:57:30.636Z,56.74
2024-02-29T10:58:30.629Z,56.23
2024-02-29T10:59:30.620Z,58.00
2024-02-29T11:00:30.646Z,55.78
2024-02-29T11:01:30.666Z,59.58
2024-02-29T11:02:30.601Z,56.38
2024-02-29T11:03:30.605Z,57.73
2024-02-29T11:04:30.639Z,56.01
2024-02-29T11:05:30.620Z,58.75
2024-02-29T11:06:30.569Z,57.58
2024-02-29T11:07:30.576Z,59.50
2024-02-29T11:08:30.547Z,54.81
2024-02-29T11:09:30.543Z,60.40
2024-02-29T11:10:30.582Z,62.08
2024-02-29T11:11:30.556Z,57.84
2024-02-29T11:12:30.547Z,54.53
2024-02-29T11:13:30.596Z,58.95
2024-02-29T11:14:30.512Z,60.28
2024-02-29T11:15:30.511Z,54.94
2024-02-29T11:16:30.578Z,58.48
2024-02-29T11:17:30.552Z,55.07
2024-02-29T11:18:30.457Z,56.70
2024-02-29T11:19:35.088Z,55.70
2024-02-29T11:20:32.801Z,60.08
2024-02-29T11:21:31.447Z,58.78
2024-02-29T11:22:30.432Z,60.20
2024-02-29T11:23:30.436Z,62.09
2024-02-29T11:24:30.469Z,57.32
2024-02-29T11:25:30.633Z,55.68
2024-02-29T11:26:30.406Z,55.81
2024-02-29T11:27:30.394Z,57.37
2024-02-29T11:28:30.432Z,57.76
2024-02-29T11:29:30.403Z,56.72
2024-02-29T11:30:30.367Z,59.23
2024-02-29T11:31:30.372Z,55.13
2024-02-29T11:32:30.465Z,58.09
2024-02-29T11:33:30.417Z,58.54
2024-02-29T11:34:30.395Z,51.72
2024-02-29T11:35:30.359Z,58.09
2024-02-29T11:36:30.345Z,59.00
2024-02-29T11:37:33.824Z,63.42
2024-02-29T11:38:36.507Z,59.27
2024-02-29T11:39:32.307Z,54.07
2024-02-29T11:40:30.296Z,55.91
2024-02-29T11:41:30.293Z,57.40
2024-02-29T11:42:30.297Z,57.96
2024-02-29T11:43:30.365Z,56.79
2024-02-29T11:44:30.258Z,54.56
2024-02-29T11:45:30.243Z,55.74
2024-02-29T11:46:30.335Z,56.72
2024-02-29T11:47:30.307Z,54.49
2024-02-29T11:48:30.217Z,56.95
2024-02-29T11:49:30.320Z,55.85
2024-02-29T11:50:30.204Z,54.61
2024-02-29T11:51:30.194Z,54.94
2024-02-29T11:52:30.209Z,56.84
2024-02-29T11:53:30.184Z,58.13
2024-02-29T11:54:30.177Z,58.08
2024-02-29T11:55:30.373Z,57.62
2024-02-29T11:56:31.185Z,55.83
2024-02-29T11:57:30.182Z,58.51
2024-02-29T11:58:30.168Z,56.99
2024-02-29T11:59:30.162Z,55.95
2024-02-29T12:00:30.158Z,56.84
2024-02-29T12:01:30.239Z,57.52
2024-02-29T12:02:30.131Z,56.48
2024-02-29T12:03:30.170Z,55.27
2024-02-29T12:04:30.132Z,54.65
2024-02-29T12:05:30.085Z,56.29
2024-02-29T12:06:30.098Z,55.72
2024-02-29T12:07:30.101Z,55.39
2024-02-29T12:08:30.065Z,57.39
2024-02-29T12:09:30.042Z,57.66
2024-02-29T12:10:30.277Z,56.68
2024-02-29T12:11:30.149Z,55.81
2024-02-29T12:12:30.046Z,56.26
2024-02-29T12:13:30.048Z,57.26
2024-02-29T12:14:30.061Z,58.63
2024-02-29T12:15:30.035Z,54.82
2024-02-29T12:16:30.074Z,56.96
2024-02-29T12:17:30.029Z,59.98
2024-02-29T12:18:29.984Z,57.54
2024-02-29T12:19:30.031Z,54.73
2024-02-29T12:20:30.010Z,58.08
2024-02-29T12:21:29.970Z,56.34
2024-02-29T12:22:30.005Z,58.62
2024-02-29T12:23:29.958Z,56.91
2024-02-29T12:24:29.931Z,57.43
2024-02-29T12:25:30.008Z,59.12
2024-02-29T12:26:29.913Z,58.16
2024-02-29T12:27:29.922Z,59.35
2024-02-29T12:28:30.023Z,57.73
2024-02-29T12:29:29.911Z,60.62
2024-02-29T12:30:29.912Z,58.61
2024-02-29T12:31:29.970Z,55.99
2024-02-29T12:32:29.872Z,54.89
2024-02-29T12:33:30.324Z,55.95
2024-02-29T12:34:29.997Z,56.03
2024-02-29T12:35:29.876Z,57.62
2024-02-29T12:36:29.931Z,55.03
2024-02-29T12:37:29.852Z,53.17
2024-02-29T12:38:29.814Z,59.13
2024-02-29T12:39:29.838Z,56.50
2024-02-29T12:40:29.877Z,61.28
2024-02-29T12:41:29.792Z,59.71
2024-02-29T12:42:29.785Z,61.19
2024-02-29T12:43:29.888Z,59.05
2024-02-29T12:44:29.792Z,60.67
2024-02-29T12:45:29.769Z,59.25
2024-02-29T12:46:30.013Z,56.92
2024-02-29T12:47:29.752Z,57.38
2024-02-29T12:48:29.798Z,58.40
2024-02-29T12:49:29.752Z,59.35
2024-02-29T12:50:29.804Z,59.65
2024-02-29T12:51:29.709Z,57.05
2024-02-29T12:52:29.747Z,59.33
2024-02-29T12:53:29.724Z,57.37